createdAt,value
2018-07-06T00:00:14.562Z,12.50
2018-07-06T00:02:54.338Z,15.30
2018-07-06T00:05:34.189Z,16.10
2018-07-06T00:08:13.917Z,16.97
2018-07-06T00:10:54.154Z,15.10
2018-07-06T00:13:34.037Z,21.43
2018-07-06T00:16:13.788Z,23.27
2018-07-06T00:18:53.665Z,22.63
2018-07-06T00:21:33.446Z,27.03
2018-07-06T00:24:13.317Z,22.93
2018-07-06T00:26:53.140Z,24.97
2018-07-06T00:29:33.844Z,25.87
2018-07-06T00:32:14.141Z,29.43
2018-07-06T00:34:53.877Z,29.93
2018-07-06T00:37:33.764Z,34.20
2018-07-06T00:40:14.018Z,31.70
2018-07-06T00:42:54.175Z,33.30
2018-07-06T00:45:34.329Z,34.97
2018-07-06T00:48:14.315Z,32.97
2018-07-06T00:50:54.861Z,36.90
2018-07-06T00:53:34.474Z,36.27
2018-07-06T00:56:14.477Z,33.80
2018-07-06T00:58:54.338Z,32.10
2018-07-06T01:01:34.304Z,32.10
2018-07-06T01:04:14.244Z,28.37
2018-07-06T01:06:47.952Z,28.33
2018-07-06T01:09:21.809Z,31.40
2018-07-06T01:12:07.175Z,34.20
2018-07-06T01:14:46.938Z,29.23
2018-07-06T01:17:26.861Z,33.63
2018-07-06T01:20:06.881Z,29.40
2018-07-06T01:22:46.880Z,30.03
2018-07-06T01:25:26.655Z,29.90
2018-07-06T01:28:06.314Z,31.83
2018-07-06T01:30:46.067Z,31.37
2018-07-06T01:33:25.956Z,27.53
2018-07-06T01:36:05.840Z,30.47
2018-07-06T01:38:45.809Z,28.87
2018-07-06T01:41:25.513Z,26.80
2018-07-06T01:44:05.146Z,26.43
2018-07-06T01:46:45.086Z,30.83
2018-07-06T01:49:25.036Z,26.43
2018-07-06T01:52:04.879Z,28.40
2018-07-06T01:54:44.590Z,25.33
2018-07-06T01:57:24.552Z,27.90
2018-07-06T02:00:04.910Z,29.63
2018-07-06T02:02:44.773Z,29.17
2018-07-06T02:05:18.537Z,24.77
2018-07-06T02:07:58.280Z,29.23
2018-07-06T02:10:38.193Z,28.40
2018-07-06T02:13:17.889Z,25.37
2018-07-06T02:15:57.782Z,29.27
2018-07-06T02:18:37.668Z,28.30
2018-07-06T02:21:17.489Z,26.47
2018-07-06T02:23:57.286Z,28.73
2018-07-06T02:26:37.265Z,30.43
2018-07-06T02:29:11.152Z,30.23
2018-07-06T02:31:51.093Z,30.77
2018-07-06T02:34:30.738Z,29.60
2018-07-06T02:37:10.687Z,25.60
2018-07-06T02:39:50.618Z,34.40
2018-07-06T02:42:30.460Z,27.67
2018-07-06T02:45:10.161Z,28.90
2018-07-06T02:47:44.049Z,24.63
2018-07-06T02:50:23.916Z,26.73
2018-07-06T02:53:03.777Z,22.47
2018-07-06T02:55:37.596Z,25.97
2018-07-06T02:58:17.430Z,27.43
2018-07-06T03:00:51.202Z,31.10
2018-07-06T03:03:31.040Z,23.47
2018-07-06T03:06:10.915Z,29.60
2018-07-06T03:08:44.785Z,30.53
2018-07-06T03:11:24.847Z,26.00
2018-07-06T03:14:04.780Z,27.03
2018-07-06T03:16:44.579Z,28.33
2018-07-06T03:19:24.441Z,25.53
2018-07-06T03:21:58.105Z,25.60
2018-07-06T03:24:38.045Z,22.90
2018-07-06T03:27:17.868Z,23.57
2018-07-06T03:29:57.646Z,22.37
2018-07-06T03:32:37.329Z,22.17
2018-07-06T03:35:11.188Z,25.83
2018-07-06T03:37:51.077Z,27.47
2018-07-06T03:40:30.971Z,21.43
2018-07-06T03:43:10.771Z,29.20
2018-07-06T03:45:50.682Z,28.03
2018-07-06T03:48:30.325Z,21.27
2018-07-06T03:51:10.583Z,28.53
2018-07-06T03:53:50.571Z,28.93
2018-07-06T03:56:30.482Z,27.70
2018-07-06T03:59:10.265Z,24.17
2018-07-06T04:01:50.205Z,32.00
2018-07-06T04:04:30.166Z,28.00
2018-07-06T04:07:09.989Z,28.97
2018-07-06T04:09:49.885Z,25.90
2018-07-06T04:12:29.821Z,21.63
2018-07-06T04:15:09.726Z,25.97
2018-07-06T04:17:49.610Z,28.90
2018-07-06T04:20:29.417Z,26.63
2018-07-06T04:23:09.250Z,22.97
2018-07-06T04:25:49.057Z,30.70
2018-07-06T04:28:28.931Z,28.57
2018-07-06T04:31:08.795Z,31.73
2018-07-06T04:33:48.521Z,28.37
2018-07-06T04:36:22.319Z,26.93
2018-07-06T04:39:02.220Z,25.43
2018-07-06T04:41:42.056Z,22.33
2018-07-06T04:44:21.861Z,19.97
2018-07-06T04:47:01.632Z,15.80
2018-07-06T04:49:35.331Z,14.03
2018-07-06T04:52:09.124Z,12.70
2018-07-06T04:54:48.920Z,14.50
2018-07-06T04:57:28.480Z,11.20
2018-07-06T05:00:08.397Z,12.87
2018-07-06T05:02:48.848Z,7.60
2018-07-06T05:05:28.787Z,12.50
2018-07-06T05:08:03.477Z,8.97
2018-07-06T05:10:43.329Z,13.13
2018-07-06T05:13:23.213Z,10.60
2018-07-06T05:15:57.391Z,9.93
2018-07-06T05:18:37.308Z,9.43
2018-07-06T05:21:17.123Z,7.53
2018-07-06T05:23:50.857Z,8.60
2018-07-06T05:26:31.478Z,11.00
2018-07-06T05:29:11.392Z,9.83
2018-07-06T05:31:51.465Z,10.00
2018-07-06T05:34:31.350Z,6.43
2018-07-06T05:37:05.129Z,9.90
2018-07-06T05:39:44.980Z,8.27
2018-07-06T05:42:24.864Z,10.90
2018-07-06T05:44:58.721Z,8.07
2018-07-06T05:47:38.726Z,8.27
2018-07-06T05:50:12.959Z,6.73
2018-07-06T05:52:52.776Z,6.60
2018-07-06T05:55:26.581Z,13.43
2018-07-06T05:58:06.390Z,11.53
2018-07-06T06:00:46.189Z,10.00
2018-07-06T06:03:20.045Z,8.70
2018-07-06T06:05:59.725Z,8.50
2018-07-06T06:08:27.094Z,8.53
2018-07-06T06:10:55.350Z,6.97
2018-07-06T06:13:24.216Z,7.97
2018-07-06T06:15:52.827Z,9.70
2018-07-06T06:18:22.065Z,5.20
2018-07-06T06:20:50.774Z,6.37
2018-07-06T06:23:19.339Z,5.33
2018-07-06T06:25:48.650Z,7.80
2018-07-06T06:28:17.442Z,6.53
2018-07-06T06:30:46.464Z,4.70
2018-07-06T06:33:15.119Z,11.93
2018-07-06T06:35:44.111Z,4.60
2018-07-06T06:38:13.173Z,7.63
2018-07-06T06:40:41.393Z,7.53
2018-07-06T06:43:09.997Z,9.17
2018-07-06T06:45:38.681Z,12.47
2018-07-06T06:48:08.345Z,8.07
2018-07-06T06:50:37.059Z,8.97
2018-07-06T06:53:05.728Z,6.60
2018-07-06T06:55:35.286Z,10.37
2018-07-06T06:58:04.100Z,10.03
2018-07-06T07:00:32.723Z,8.70
2018-07-06T07:03:01.401Z,5.50
2018-07-06T07:05:30.539Z,5.37
2018-07-06T07:07:59.128Z,6.63
2018-07-06T07:10:27.702Z,9.47
2018-07-06T07:12:56.285Z,8.77
2018-07-06T07:15:24.987Z,6.50
2018-07-06T07:17:53.697Z,7.83
2018-07-06T07:20:22.021Z,8.17
2018-07-06T07:22:50.775Z,6.03
2018-07-06T07:25:19.029Z,7.00
2018-07-06T07:27:48.343Z,8.53
2018-07-06T07:30:16.691Z,5.43
2018-07-06T07:32:45.609Z,6.87
2018-07-06T07:35:14.511Z,6.90
2018-07-06T07:37:43.378Z,5.90
2018-07-06T07:40:12.227Z,8.93
2018-07-06T07:42:41.075Z,5.90
2018-07-06T07:45:09.769Z,6.27
2018-07-06T07:47:38.189Z,6.10
2018-07-06T07:50:07.465Z,5.80
2018-07-06T07:52:48.043Z,5.93
2018-07-06T07:55:16.738Z,5.63
2018-07-06T07:57:45.954Z,4.27
2018-07-06T08:00:15.337Z,6.00
2018-07-06T08:02:44.637Z,8.20
2018-07-06T08:05:14.073Z,6.73
2018-07-06T08:07:43.534Z,5.23
2018-07-06T08:10:12.978Z,6.60
2018-07-06T08:12:41.676Z,5.73
2018-07-06T08:15:10.908Z,9.07
2018-07-06T08:17:39.145Z,8.47
2018-07-06T08:20:08.649Z,8.77
2018-07-06T08:22:38.161Z,6.93
2018-07-06T08:25:06.967Z,7.23
2018-07-06T08:27:35.690Z,6.37
2018-07-06T08:30:04.498Z,7.87
2018-07-06T08:32:33.954Z,9.27
2018-07-06T08:35:14.074Z,7.43
2018-07-06T08:37:56.477Z,6.73
2018-07-06T08:40:26.941Z,7.40
2018-07-06T08:42:56.862Z,7.97
2018-07-06T08:45:25.738Z,6.13
2018-07-06T08:47:54.497Z,6.20
2018-07-06T08:50:23.176Z,4.23
2018-07-06T08:52:53.288Z,7.50
2018-07-06T08:55:22.121Z,6.97
2018-07-06T08:57:52.122Z,5.93
2018-07-06T09:00:20.858Z,6.67
2018-07-06T09:02:49.804Z,7.43
2018-07-06T09:05:18.385Z,5.63
2018-07-06T09:07:46.982Z,5.23
2018-07-06T09:10:15.600Z,6.90
2018-07-06T09:12:43.850Z,8.50
2018-07-06T09:15:12.421Z,11.10
2018-07-06T09:17:41.052Z,10.47
2018-07-06T09:20:09.351Z,16.63
2018-07-06T09:22:38.065Z,13.73
2018-07-06T09:25:07.559Z,11.97
2018-07-06T09:27:36.195Z,10.60
2018-07-06T09:30:04.883Z,13.97
2018-07-06T09:32:33.499Z,15.33
2018-07-06T09:35:02.103Z,10.47
2018-07-06T09:37:30.978Z,9.40
2018-07-06T09:39:59.681Z,10.37
2018-07-06T09:42:28.333Z,10.37
2018-07-06T09:44:56.550Z,13.73
2018-07-06T09:47:25.155Z,11.67
2018-07-06T09:49:53.917Z,9.60
2018-07-06T09:52:22.999Z,11.07
2018-07-06T09:54:51.553Z,10.87
2018-07-06T09:57:19.927Z,14.73
2018-07-06T09:59:48.482Z,10.13
2018-07-06T10:02:17.553Z,9.27
2018-07-06T10:04:46.134Z,8.50
2018-07-06T10:07:14.828Z,9.50
2018-07-06T10:09:43.448Z,10.33
2018-07-06T10:12:11.998Z,8.33
2018-07-06T10:14:40.641Z,5.40
2018-07-06T10:17:08.913Z,7.60
2018-07-06T10:19:37.215Z,7.10
2018-07-06T10:22:06.654Z,5.60
2018-07-06T10:24:35.413Z,5.30
2018-07-06T10:27:04.114Z,4.67
2018-07-06T10:29:42.610Z,4.67
2018-07-06T10:32:24.273Z,5.77
2018-07-06T10:34:52.704Z,4.63
2018-07-06T10:37:21.432Z,4.77
2018-07-06T10:39:50.664Z,5.07
2018-07-06T10:42:18.807Z,5.10
2018-07-06T10:44:47.560Z,7.70
2018-07-06T10:47:16.237Z,4.90
2018-07-06T10:49:45.743Z,7.67
2018-07-06T10:52:15.925Z,8.57
2018-07-06T10:54:44.802Z,4.77
2018-07-06T10:57:13.438Z,7.70
2018-07-06T10:59:42.054Z,5.07
2018-07-06T11:02:10.640Z,4.43
2018-07-06T11:04:39.256Z,4.50
2018-07-06T11:07:07.514Z,4.60
2018-07-06T11:09:36.145Z,6.03
2018-07-06T11:12:04.758Z,4.47
2018-07-06T11:14:33.977Z,3.70
2018-07-06T11:17:02.598Z,3.73
2018-07-06T11:19:30.839Z,4.63
2018-07-06T11:21:59.431Z,4.00
2018-07-06T11:24:28.104Z,3.43
2018-07-06T11:26:56.692Z,3.30
2018-07-06T11:29:25.933Z,3.33
2018-07-06T11:31:54.568Z,5.17
2018-07-06T11:34:23.150Z,4.87
2018-07-06T11:36:51.735Z,3.57
2018-07-06T11:39:20.362Z,2.57
2018-07-06T11:41:48.588Z,4.67
2018-07-06T11:44:17.528Z,7.73
2018-07-06T11:46:45.768Z,3.70
2018-07-06T11:49:14.318Z,5.43
2018-07-06T11:51:42.925Z,6.03
2018-07-06T11:54:11.498Z,4.93
2018-07-06T11:56:40.141Z,6.27
2018-07-06T11:59:08.382Z,4.23
2018-07-06T12:01:36.970Z,5.90
2018-07-06T12:04:05.699Z,4.53
2018-07-06T12:06:34.296Z,3.80
2018-07-06T12:09:02.921Z,4.17
2018-07-06T12:11:31.506Z,4.93
2018-07-06T12:14:00.122Z,6.37
2018-07-06T12:16:28.937Z,4.97
2018-07-06T12:18:57.512Z,7.80
2018-07-06T12:21:25.932Z,7.03
2018-07-06T12:23:54.462Z,5.90
2018-07-06T12:26:23.404Z,7.40
2018-07-06T12:28:51.954Z,5.90
2018-07-06T12:31:20.249Z,5.20
2018-07-06T12:33:49.716Z,5.77
2018-07-06T12:36:18.994Z,8.27
2018-07-06T12:38:47.685Z,6.83
2018-07-06T12:41:16.577Z,6.67
2018-07-06T12:43:45.151Z,6.30
2018-07-06T12:46:13.686Z,7.57
2018-07-06T12:48:42.361Z,7.13
2018-07-06T12:51:10.909Z,7.40
2018-07-06T12:53:39.487Z,4.97
2018-07-06T12:56:08.045Z,5.73
2018-07-06T12:58:36.910Z,5.43
2018-07-06T13:01:05.333Z,4.87
2018-07-06T13:03:33.949Z,6.97
2018-07-06T13:06:02.499Z,6.03
2018-07-06T13:08:31.153Z,4.33
2018-07-06T13:10:59.696Z,7.47
2018-07-06T13:13:28.270Z,5.27
2018-07-06T13:15:56.870Z,5.80
2018-07-06T13:18:25.539Z,5.80
2018-07-06T13:20:54.166Z,4.83
2018-07-06T13:23:22.773Z,5.70
2018-07-06T13:25:51.412Z,7.53
2018-07-06T13:28:21.118Z,4.50
2018-07-06T13:30:49.723Z,6.30
2018-07-06T13:33:19.589Z,8.63
2018-07-06T13:35:48.203Z,5.40
2018-07-06T13:38:16.803Z,7.97
2018-07-06T13:40:45.389Z,6.70
2018-07-06T13:43:13.980Z,6.53
2018-07-06T13:45:42.259Z,5.00
2018-07-06T13:48:10.879Z,6.63
2018-07-06T13:50:39.499Z,7.60
2018-07-06T13:53:08.981Z,5.17
2018-07-06T13:55:37.553Z,4.07
2018-07-06T13:58:06.168Z,4.33
2018-07-06T14:00:34.898Z,4.17
2018-07-06T14:03:03.131Z,6.23
2018-07-06T14:05:31.757Z,6.10
2018-07-06T14:07:59.990Z,7.70
2018-07-06T14:10:30.229Z,5.87
2018-07-06T14:12:58.782Z,5.90
2018-07-06T14:15:27.383Z,5.50
2018-07-06T14:17:55.984Z,5.97
2018-07-06T14:20:24.653Z,5.23
2018-07-06T14:22:53.269Z,5.20
2018-07-06T14:25:22.021Z,5.03
2018-07-06T14:27:51.188Z,5.00
2018-07-06T14:30:20.041Z,6.07
2018-07-06T14:32:49.070Z,7.77
2018-07-06T14:35:18.117Z,4.40
2018-07-06T14:37:46.701Z,6.70
2018-07-06T14:40:15.246Z,4.33
2018-07-06T14:42:43.852Z,5.67
2018-07-06T14:45:13.402Z,3.73
2018-07-06T14:47:42.788Z,4.30
2018-07-06T14:50:11.401Z,5.43
2018-07-06T14:52:40.129Z,4.33
2018-07-06T14:55:09.466Z,4.00
2018-07-06T14:57:38.220Z,3.37
2018-07-06T15:00:06.876Z,4.07
2018-07-06T15:02:35.560Z,7.00
2018-07-06T15:05:04.194Z,4.77
2018-07-06T15:07:32.857Z,5.10
2018-07-06T15:10:01.469Z,3.43
2018-07-06T15:12:30.104Z,4.07
2018-07-06T15:14:58.638Z,5.27
2018-07-06T15:17:27.262Z,8.13
2018-07-06T15:19:55.474Z,5.20
2018-07-06T15:22:24.111Z,4.57
2018-07-06T15:24:52.412Z,4.13
2018-07-06T15:27:20.933Z,4.80
2018-07-06T15:29:49.512Z,4.30
2018-07-06T15:32:18.130Z,4.23
2018-07-06T15:34:47.024Z,3.53
2018-07-06T15:37:15.601Z,7.33
2018-07-06T15:39:44.224Z,3.63
2018-07-06T15:42:12.841Z,4.17
2018-07-06T15:44:41.411Z,4.60
2018-07-06T15:47:10.028Z,3.07
2018-07-06T15:49:38.808Z,6.03
2018-07-06T15:52:08.155Z,4.17
2018-07-06T15:54:36.392Z,5.47
2018-07-06T15:57:05.071Z,5.00
2018-07-06T15:59:33.670Z,3.97
2018-07-06T16:02:02.294Z,3.50
2018-07-06T16:04:30.669Z,4.03
2018-07-06T16:06:58.913Z,5.33
2018-07-06T16:09:27.517Z,4.20
2018-07-06T16:11:56.085Z,6.73
2018-07-06T16:14:24.689Z,5.17
2018-07-06T16:16:53.326Z,6.30
2018-07-06T16:19:22.001Z,5.53
2018-07-06T16:21:50.699Z,7.47
2018-07-06T16:24:19.313Z,8.57
2018-07-06T16:26:47.971Z,7.07
2018-07-06T16:29:16.549Z,7.03
2018-07-06T16:31:45.149Z,7.23
2018-07-06T16:34:13.753Z,6.50
2018-07-06T16:36:42.313Z,6.10
2018-07-06T16:39:10.937Z,9.40
2018-07-06T16:41:39.537Z,8.83
2018-07-06T16:44:08.182Z,9.17
2018-07-06T16:46:36.723Z,6.90
2018-07-06T16:49:05.330Z,6.93
2018-07-06T16:51:34.004Z,6.83
2018-07-06T16:54:02.558Z,6.87
2018-07-06T16:56:30.848Z,8.40
2018-07-06T16:58:59.036Z,6.37
2018-07-06T17:01:28.826Z,8.80
2018-07-06T17:03:57.029Z,8.70
2018-07-06T17:06:25.586Z,6.93
2018-07-06T17:08:54.210Z,9.30
2018-07-06T17:11:23.263Z,7.43
2018-07-06T17:13:51.536Z,11.03
2018-07-06T17:16:20.139Z,10.70
2018-07-06T17:18:48.721Z,9.83
2018-07-06T17:21:16.994Z,21.13
2018-07-06T17:23:45.970Z,11.73
2018-07-06T17:26:14.846Z,11.37
2018-07-06T17:28:43.421Z,7.63
2018-07-06T17:31:12.150Z,6.50
2018-07-06T17:33:41.013Z,9.37
2018-07-06T17:36:09.645Z,9.57
2018-07-06T17:38:38.205Z,7.40
2018-07-06T17:41:07.817Z,9.57
2018-07-06T17:43:37.885Z,6.20
2018-07-06T17:46:06.478Z,7.77
2018-07-06T17:48:35.071Z,7.93
2018-07-06T17:51:03.938Z,12.00
2018-07-06T17:53:32.575Z,11.40
2018-07-06T17:56:00.770Z,11.70
2018-07-06T17:58:29.978Z,7.90
2018-07-06T18:00:58.677Z,8.57
2018-07-06T18:03:27.598Z,7.63
2018-07-06T18:05:56.265Z,13.53
2018-07-06T18:08:24.977Z,7.57
2018-07-06T18:10:53.535Z,8.40
2018-07-06T18:13:22.181Z,9.97
2018-07-06T18:15:50.584Z,5.70
2018-07-06T18:18:19.257Z,7.37
2018-07-06T18:20:47.845Z,8.90
2018-07-06T18:23:16.618Z,8.67
2018-07-06T18:25:45.153Z,9.13
2018-07-06T18:28:13.984Z,11.63
2018-07-06T18:30:42.255Z,8.43
2018-07-06T18:33:10.863Z,11.73
2018-07-06T18:35:39.541Z,12.57
2018-07-06T18:38:08.591Z,7.57
2018-07-06T18:40:37.205Z,7.20
2018-07-06T18:43:05.953Z,7.27
2018-07-06T18:45:34.611Z,8.00
2018-07-06T18:48:04.133Z,9.00
2018-07-06T18:50:32.767Z,8.03
2018-07-06T18:53:02.294Z,7.67
2018-07-06T18:55:31.129Z,7.60
2018-07-06T18:57:59.810Z,9.80
2018-07-06T19:00:28.462Z,7.63
2018-07-06T19:02:57.038Z,8.53
2018-07-06T19:05:25.296Z,7.37
2018-07-06T19:07:54.237Z,8.87
2018-07-06T19:10:23.397Z,14.67
2018-07-06T19:12:51.990Z,7.47
2018-07-06T19:15:21.450Z,10.43
2018-07-06T19:17:50.074Z,14.67
2018-07-06T19:20:18.709Z,10.13
2018-07-06T19:22:47.406Z,10.33
2018-07-06T19:25:16.519Z,10.93
2018-07-06T19:27:45.106Z,9.77
2018-07-06T19:30:14.725Z,12.37
2018-07-06T19:32:44.764Z,11.67
2018-07-06T19:35:13.842Z,10.70
2018-07-06T19:37:42.484Z,10.40
2018-07-06T19:40:11.378Z,10.20
2018-07-06T19:42:39.988Z,15.23
2018-07-06T19:45:09.726Z,13.43
2018-07-06T19:47:38.362Z,17.83
2018-07-06T19:50:07.174Z,15.43
2018-07-06T19:52:35.756Z,12.47
2018-07-06T19:55:04.446Z,9.43
2018-07-06T19:57:34.042Z,10.83
2018-07-06T20:00:02.636Z,10.73
2018-07-06T20:02:31.635Z,10.90
2018-07-06T20:05:00.209Z,16.00
2018-07-06T20:07:28.841Z,11.53
2018-07-06T20:09:57.449Z,13.27
2018-07-06T20:12:26.095Z,9.93
2018-07-06T20:14:55.697Z,11.10
2018-07-06T20:17:25.042Z,25.30
2018-07-06T20:19:53.573Z,12.70
2018-07-06T20:22:22.165Z,9.70
2018-07-06T20:24:51.597Z,12.43
2018-07-06T20:27:20.238Z,10.37
2018-07-06T20:29:49.662Z,10.80
2018-07-06T20:32:18.845Z,12.53
2018-07-06T20:34:47.945Z,9.70
2018-07-06T20:37:16.553Z,9.73
2018-07-06T20:39:44.786Z,15.47
2018-07-06T20:42:13.366Z,10.17
2018-07-06T20:44:41.921Z,10.10
2018-07-06T20:47:10.497Z,10.57
2018-07-06T20:49:39.557Z,13.57
2018-07-06T20:52:08.128Z,11.47
2018-07-06T20:54:37.564Z,11.07
2018-07-06T20:57:05.975Z,12.53
2018-07-06T20:59:34.566Z,10.47
2018-07-06T21:02:03.098Z,13.90
2018-07-06T21:04:31.654Z,11.17
2018-07-06T21:07:00.194Z,12.43
2018-07-06T21:09:28.508Z,12.93
2018-07-06T21:11:57.040Z,11.40
2018-07-06T21:14:25.626Z,10.50
2018-07-06T21:16:53.825Z,11.53
2018-07-06T21:19:22.638Z,11.17
2018-07-06T21:21:51.185Z,11.30
2018-07-06T21:24:19.461Z,15.07
2018-07-06T21:26:48.493Z,12.40
2018-07-06T21:29:17.071Z,11.07
2018-07-06T21:31:45.621Z,12.23
2018-07-06T21:34:13.838Z,11.23
2018-07-06T21:36:42.467Z,12.17
2018-07-06T21:39:11.543Z,12.57
2018-07-06T21:41:40.129Z,13.67
2018-07-06T21:44:08.694Z,14.37
2018-07-06T21:46:37.208Z,10.43
2018-07-06T21:49:05.821Z,12.53
2018-07-06T21:51:34.056Z,15.57
2018-07-06T21:54:02.658Z,12.17
2018-07-06T21:56:31.286Z,14.67
2018-07-06T21:59:00.473Z,11.37
2018-07-06T22:01:29.101Z,11.27
2018-07-06T22:03:57.649Z,12.67
2018-07-06T22:06:26.266Z,13.43
2018-07-06T22:08:54.850Z,13.90
2018-07-06T22:11:23.506Z,16.73
2018-07-06T22:13:52.164Z,12.27
2018-07-06T22:16:20.757Z,13.37
2018-07-06T22:18:49.016Z,15.20
2018-07-06T22:21:17.604Z,11.60
2018-07-06T22:23:46.170Z,12.13
2018-07-06T22:26:14.791Z,11.93
2018-07-06T22:28:43.017Z,12.63
2018-07-06T22:31:11.629Z,15.03
2018-07-06T22:33:40.478Z,14.87
2018-07-06T22:36:09.066Z,13.90
2018-07-06T22:38:37.642Z,16.10
2018-07-06T22:41:06.976Z,11.43
2018-07-06T22:43:35.558Z,12.53
2018-07-06T22:46:04.199Z,12.13
2018-07-06T22:48:33.205Z,12.87
2018-07-06T22:51:01.774Z,14.63
2018-07-06T22:53:30.369Z,12.60
2018-07-06T22:55:58.917Z,21.07
2018-07-06T22:58:27.563Z,13.00
2018-07-06T23:00:56.715Z,14.20
2018-07-06T23:03:24.956Z,12.87
2018-07-06T23:05:53.570Z,12.33
2018-07-06T23:08:21.892Z,13.00
2018-07-06T23:10:50.458Z,14.13
2018-07-06T23:13:19.038Z,12.00
2018-07-06T23:15:48.475Z,15.03
2018-07-06T23:18:17.084Z,14.27
2018-07-06T23:20:45.627Z,11.97
2018-07-06T23:23:15.082Z,13.63
2018-07-06T23:25:47.502Z,11.43
2018-07-06T23:28:16.213Z,12.83
2018-07-06T23:30:44.911Z,12.53
2018-07-06T23:33:13.598Z,12.97
2018-07-06T23:35:42.416Z,16.77
2018-07-06T23:38:10.664Z,12.03
2018-07-06T23:40:39.877Z,13.30
2018-07-06T23:43:08.547Z,12.13
2018-07-06T23:45:37.089Z,15.87
2018-07-06T23:48:05.717Z,14.93
2018-07-06T23:50:34.334Z,12.40
2018-07-06T23:53:02.575Z,14.57
2018-07-06T23:55:31.858Z,13.43
2018-07-06T23:58:00.492Z,12.37
